createdAt,value
2022-11-08T00:01:09.510Z,25.58
2022-11-08T00:06:29.921Z,25.13
2022-11-08T00:11:50.549Z,24.20
2022-11-08T00:16:52.448Z,24.35
2022-11-08T00:21:54.631Z,25.05
2022-11-08T00:26:56.558Z,24.38
2022-11-08T00:31:58.585Z,24.17
2022-11-08T00:37:01.060Z,22.80
2022-11-08T00:42:03.143Z,22.55
2022-11-08T00:47:05.684Z,25.48
2022-11-08T00:52:07.578Z,24.00
2022-11-08T00:57:09.413Z,24.70
2022-11-08T01:02:11.412Z,28.83
2022-11-08T01:07:13.261Z,25.88
2022-11-08T01:12:17.576Z,24.63
2022-11-08T01:17:19.500Z,25.30
2022-11-08T01:22:21.535Z,28.33
2022-11-08T01:27:23.372Z,25.27
2022-11-08T01:32:25.269Z,55.45
2022-11-08T01:37:27.213Z,33.45
2022-11-08T01:42:33.306Z,30.25
2022-11-08T01:47:38.523Z,31.58
2022-11-08T01:52:47.564Z,30.63
2022-11-08T01:58:01.408Z,30.98
2022-11-08T02:08:22.167Z,30.27
2022-11-08T02:13:27.178Z,28.05
2022-11-08T02:18:31.287Z,28.20
2022-11-08T02:23:45.661Z,27.52
2022-11-08T02:28:48.679Z,30.02
2022-11-08T02:33:50.862Z,26.80
2022-11-08T02:38:57.985Z,24.90
2022-11-08T02:43:59.947Z,26.45
2022-11-08T02:49:01.789Z,28.80
2022-11-08T02:54:03.751Z,27.13
2022-11-08T02:59:06.228Z,28.08
2022-11-08T03:04:08.487Z,30.20
2022-11-08T03:09:11.117Z,25.67
2022-11-08T03:14:13.195Z,26.55
2022-11-08T03:19:15.393Z,23.17
2022-11-08T03:24:17.550Z,26.40
2022-11-08T03:29:19.509Z,24.60
2022-11-08T03:34:21.450Z,25.63
2022-11-08T03:39:23.302Z,25.92
2022-11-08T03:44:25.222Z,25.80
2022-11-08T03:49:27.624Z,22.02
2022-11-08T03:54:29.528Z,25.65
2022-11-08T03:59:31.381Z,24.70
2022-11-08T04:04:33.397Z,23.67
2022-11-08T04:09:35.292Z,29.58
2022-11-08T04:14:55.677Z,25.90
2022-11-08T04:20:15.951Z,27.55
2022-11-08T04:25:18.092Z,29.90
2022-11-08T04:30:20.194Z,29.20
2022-11-08T04:35:22.088Z,24.33
2022-11-08T04:40:23.964Z,25.73
2022-11-08T04:45:25.968Z,23.95
2022-11-08T04:50:28.256Z,22.60
2022-11-08T04:55:30.307Z,23.42
2022-11-08T05:00:32.168Z,21.88
2022-11-08T05:05:34.075Z,23.13
2022-11-08T05:10:35.931Z,22.65
2022-11-08T05:15:37.949Z,23.08
2022-11-08T05:20:58.504Z,26.08
2022-11-08T05:26:00.635Z,25.17
2022-11-08T05:31:03.407Z,24.45
2022-11-08T05:36:07.924Z,24.07
2022-11-08T05:41:21.095Z,22.88
2022-11-08T05:46:23.678Z,24.02
2022-11-08T05:51:25.756Z,23.73
2022-11-08T05:56:27.763Z,25.08
2022-11-08T06:01:29.727Z,27.42
2022-11-08T06:06:31.683Z,25.73
2022-11-08T06:11:40.049Z,26.58
2022-11-08T06:16:48.684Z,28.15
2022-11-08T06:21:50.592Z,31.27
2022-11-08T06:26:52.748Z,27.85
2022-11-08T06:31:54.699Z,25.52
2022-11-08T06:36:58.788Z,28.05
2022-11-08T06:42:01.192Z,29.75
2022-11-08T06:47:03.333Z,25.33
2022-11-08T06:52:05.305Z,26.27
2022-11-08T06:57:07.460Z,24.95
2022-11-08T07:02:11.114Z,25.02
2022-11-08T07:07:13.149Z,27.95
2022-11-08T07:12:14.995Z,40.03
2022-11-08T07:17:17.102Z,32.63
2022-11-08T07:22:19.021Z,28.13
2022-11-08T07:27:21.064Z,25.58
2022-11-08T07:32:23.083Z,21.63
2022-11-08T07:37:24.976Z,22.65
2022-11-08T07:42:34.298Z,55.58
2022-11-08T07:47:57.177Z,31.55
2022-11-08T07:52:59.321Z,29.90
2022-11-08T07:58:02.046Z,21.83
2022-11-08T08:03:06.394Z,21.80
2022-11-08T08:08:08.953Z,23.17
2022-11-08T08:13:11.928Z,22.75
2022-11-08T08:18:13.914Z,18.40
2022-11-08T08:23:16.202Z,16.20
2022-11-08T08:28:19.011Z,19.00
2022-11-08T08:33:29.419Z,25.33
2022-11-08T08:38:33.369Z,21.13
2022-11-08T08:43:35.251Z,18.65
2022-11-08T08:48:38.872Z,20.33
2022-11-08T08:53:40.984Z,22.10
2022-11-08T08:58:43.367Z,19.95
2022-11-08T09:03:45.505Z,15.30
2022-11-08T09:08:47.584Z,16.40
2022-11-08T09:13:49.848Z,20.17
2022-11-08T09:18:51.817Z,23.75
2022-11-08T09:23:53.890Z,16.25
2022-11-08T09:28:56.070Z,18.38
2022-11-08T09:33:58.324Z,18.70
2022-11-08T09:39:00.256Z,16.88
2022-11-08T09:44:40.584Z,18.35
2022-11-08T09:49:49.159Z,21.65
2022-11-08T09:54:55.535Z,15.57
2022-11-08T10:00:05.309Z,16.73
2022-11-08T10:05:13.519Z,17.10
2022-11-08T10:10:47.292Z,14.35
2022-11-08T10:16:30.326Z,14.82
2022-11-08T10:21:57.131Z,15.45
2022-11-08T10:27:00.365Z,11.85
2022-11-08T10:32:25.245Z,14.75
2022-11-08T10:37:28.038Z,12.90
2022-11-08T10:42:57.838Z,13.30
2022-11-08T10:48:00.145Z,14.82
2022-11-08T10:53:04.035Z,15.43
2022-11-08T10:58:30.982Z,15.55
2022-11-08T11:03:39.553Z,14.55
2022-11-08T11:08:50.767Z,13.55
2022-11-08T11:14:16.617Z,11.20
2022-11-08T11:19:26.346Z,11.77
2022-11-08T11:24:28.579Z,18.55
2022-11-08T11:29:35.984Z,10.20
2022-11-08T11:34:48.776Z,12.60
2022-11-08T11:40:29.816Z,8.82
2022-11-08T11:45:46.897Z,7.15
2022-11-08T11:50:50.205Z,9.27
2022-11-08T11:56:10.753Z,11.43
2022-11-08T12:01:35.085Z,8.57
2022-11-08T12:06:49.639Z,8.43
2022-11-08T12:12:14.909Z,9.95
2022-11-08T12:17:50.502Z,8.00
2022-11-08T12:23:19.728Z,6.78
2022-11-08T12:28:32.739Z,6.28
2022-11-08T12:33:43.535Z,9.63
2022-11-08T12:39:23.622Z,8.25
2022-11-08T12:44:45.115Z,5.60
2022-11-08T12:50:02.108Z,7.07
2022-11-08T12:55:09.964Z,8.07
2022-11-08T13:00:18.569Z,5.72
2022-11-08T13:05:25.723Z,10.07
2022-11-08T13:10:48.221Z,7.30
2022-11-08T13:16:16.477Z,6.88
2022-11-08T13:21:38.950Z,8.82
2022-11-08T13:26:42.592Z,5.57
2022-11-08T13:37:18.592Z,9.95
2022-11-08T13:42:20.591Z,11.70
2022-11-08T13:47:34.646Z,12.18
2022-11-08T13:52:47.069Z,9.07
2022-11-08T13:57:59.359Z,14.90
2022-11-08T14:03:01.339Z,11.13
2022-11-08T14:08:24.606Z,25.48
2022-11-08T14:13:37.571Z,12.93
2022-11-08T14:18:39.517Z,10.50
2022-11-08T14:23:42.472Z,15.38
2022-11-08T14:28:47.506Z,9.95
2022-11-08T14:33:49.460Z,10.82
2022-11-08T14:39:15.943Z,11.55
2022-11-08T14:44:19.011Z,62.20
2022-11-08T14:49:22.738Z,18.30
2022-11-08T14:59:31.622Z,23.05
2022-11-08T15:04:39.904Z,23.73
2022-11-08T15:09:41.896Z,25.30
2022-11-08T15:14:52.288Z,105.78
2022-11-08T15:20:06.881Z,69.13
2022-11-08T15:25:14.734Z,45.42
2022-11-08T15:30:26.356Z,52.20
2022-11-08T15:35:38.658Z,55.50
2022-11-08T15:40:50.172Z,43.40
2022-11-08T15:45:55.119Z,37.38
2022-11-08T15:50:57.768Z,118.03
2022-11-08T15:56:04.695Z,124.43
2022-11-08T16:01:06.866Z,81.63
2022-11-08T16:06:12.156Z,67.78
2022-11-08T16:11:20.816Z,62.83
2022-11-08T16:16:22.770Z,80.35
2022-11-08T16:21:24.817Z,63.47
2022-11-08T16:26:26.754Z,56.65
2022-11-08T16:31:28.630Z,51.55
2022-11-08T16:36:30.794Z,46.10
2022-11-08T16:41:32.671Z,45.25
2022-11-08T16:46:35.032Z,73.85
2022-11-08T16:51:37.172Z,64.07
2022-11-08T16:56:39.052Z,59.63
2022-11-08T17:01:41.329Z,53.80
2022-11-08T17:06:43.575Z,64.35
2022-11-08T17:11:45.597Z,67.65
2022-11-08T17:16:48.558Z,60.92
2022-11-08T17:21:50.502Z,67.77
2022-11-08T17:26:53.680Z,47.92
2022-11-08T17:31:55.800Z,41.88
2022-11-08T17:36:57.730Z,38.10
2022-11-08T17:42:00.139Z,42.20
2022-11-08T17:47:02.245Z,47.75
2022-11-08T17:52:04.184Z,66.97
2022-11-08T17:57:06.347Z,46.97
2022-11-08T18:02:09.844Z,37.53
2022-11-08T18:07:12.100Z,30.88
2022-11-08T18:12:14.271Z,29.58
2022-11-08T18:17:16.133Z,41.38
2022-11-08T18:22:19.544Z,40.17
2022-11-08T18:27:21.484Z,64.55
2022-11-08T18:32:23.396Z,53.95
2022-11-08T18:37:25.767Z,38.67
2022-11-08T18:42:28.089Z,39.50
2022-11-08T18:47:32.249Z,43.08
2022-11-08T18:52:34.132Z,37.40
2022-11-08T18:57:37.556Z,36.15
2022-11-08T19:02:39.840Z,41.75
2022-11-08T19:07:41.765Z,47.75
2022-11-08T19:12:43.701Z,61.53
2022-11-08T19:17:49.893Z,49.58
2022-11-08T19:22:55.452Z,51.50
2022-11-08T19:27:58.793Z,45.38
2022-11-08T19:33:00.748Z,59.30
2022-11-08T19:38:02.692Z,67.85
2022-11-08T19:43:04.567Z,62.40
2022-11-08T19:48:07.150Z,53.83
2022-11-08T19:53:09.607Z,58.80
2022-11-08T19:58:11.520Z,49.20
2022-11-08T20:03:19.573Z,46.92
2022-11-08T20:08:22.102Z,48.80
2022-11-08T20:13:25.956Z,54.60
2022-11-08T20:18:29.644Z,54.90
2022-11-08T20:23:31.844Z,49.40
2022-11-08T20:28:34.435Z,54.25
2022-11-08T20:33:39.608Z,52.55
2022-11-08T20:38:42.005Z,72.72
2022-11-08T20:43:45.777Z,53.95
2022-11-08T20:48:51.905Z,56.75
2022-11-08T20:53:54.277Z,59.90
2022-11-08T20:58:56.875Z,48.90
2022-11-08T21:03:59.252Z,48.17
2022-11-08T21:09:09.877Z,47.90
2022-11-08T21:14:18.740Z,45.75
2022-11-08T21:19:21.568Z,54.17
2022-11-08T21:24:23.967Z,85.13
2022-11-08T21:29:26.016Z,53.97
2022-11-08T21:34:32.445Z,51.50
2022-11-08T21:39:34.657Z,46.33
2022-11-08T21:44:36.753Z,48.60
2022-11-08T21:49:38.858Z,45.35
2022-11-08T21:54:40.919Z,43.20
2022-11-08T21:59:42.939Z,73.18
2022-11-08T22:04:44.834Z,71.95
2022-11-08T22:09:47.164Z,60.30
2022-11-08T22:14:51.387Z,52.70
2022-11-08T22:19:54.009Z,52.95
2022-11-08T22:24:55.920Z,71.90
2022-11-08T22:29:57.870Z,57.42
2022-11-08T22:34:59.756Z,52.55
2022-11-08T22:40:01.795Z,53.38
2022-11-08T22:45:04.010Z,44.10
2022-11-08T22:50:06.402Z,44.90
2022-11-08T22:55:08.930Z,42.13
2022-11-08T23:00:12.648Z,44.53
2022-11-08T23:10:16.689Z,45.95
2022-11-08T23:15:37.040Z,70.80
2022-11-08T23:20:57.379Z,54.92
2022-11-08T23:25:59.396Z,49.35
2022-11-08T23:31:22.915Z,40.53
2022-11-08T23:36:28.389Z,44.55
2022-11-08T23:41:48.759Z,45.53
2022-11-08T23:47:01.260Z,47.20
2022-11-08T23:52:03.716Z,42.35
2022-11-08T23:57:05.612Z,40.50
